sensor_id;sensor_type;location;lat;lon;timestamp;temperature;humidity
42905;DHT22;28550;51.228;4.528;2023-04-23T00:01:13;8.80;99.90
42905;DHT22;28550;51.228;4.528;2023-04-23T00:03:42;8.70;99.90
42905;DHT22;28550;51.228;4.528;2023-04-23T00:06:10;8.80;99.90
42905;DHT22;28550;51.228;4.528;2023-04-23T00:08:40;8.90;99.90
42905;DHT22;28550;51.228;4.528;2023-04-23T00:11:07;8.90;99.90
42905;DHT22;28550;51.228;4.528;2023-04-23T00:13:34;9.00;99.90
42905;DHT22;28550;51.228;4.528;2023-04-23T00:16:03;8.90;99.90
42905;DHT22;28550;51.228;4.528;2023-04-23T00:18:29;9.00;99.90
42905;DHT22;28550;51.228;4.528;2023-04-23T00:20:55;9.00;99.90
42905;DHT22;28550;51.228;4.528;2023-04-23T00:23:21;9.00;99.90
42905;DHT22;28550;51.228;4.528;2023-04-23T00:25:47;9.00;99.90
42905;DHT22;28550;51.228;4.528;2023-04-23T00:28:14;9.10;99.90
42905;DHT22;28550;51.228;4.528;2023-04-23T00:30:40;9.00;99.90
42905;DHT22;28550;51.228;4.528;2023-04-23T00:33:06;9.10;99.90
42905;DHT22;28550;51.228;4.528;2023-04-23T00:35:32;9.00;99.90
42905;DHT22;28550;51.228;4.528;2023-04-23T00:37:58;9.00;99.90
42905;DHT22;28550;51.228;4.528;2023-04-23T00:40:23;9.10;99.90
42905;DHT22;28550;51.228;4.528;2023-04-23T00:42:49;9.20;99.90
42905;DHT22;28550;51.228;4.528;2023-04-23T00:45:18;9.20;99.90
42905;DHT22;28550;51.228;4.528;2023-04-23T00:47:46;9.10;99.90
42905;DHT22;28550;51.228;4.528;2023-04-23T00:50:12;9.10;99.90
42905;DHT22;28550;51.228;4.528;2023-04-23T00:52:38;9.10;99.90
42905;DHT22;28550;51.228;4.528;2023-04-23T00:55:06;9.10;99.90
42905;DHT22;28550;51.228;4.528;2023-04-23T00:57:36;9.10;99.90
42905;DHT22;28550;51.228;4.528;2023-04-23T01:00:06;9.10;99.90
42905;DHT22;28550;51.228;4.528;2023-04-23T01:02:33;9.20;99.90
42905;DHT22;28550;51.228;4.528;2023-04-23T01:05:00;9.20;99.90
42905;DHT22;28550;51.228;4.528;2023-04-23T01:07:27;9.20;99.90
42905;DHT22;28550;51.228;4.528;2023-04-23T01:09:54;9.30;99.90
42905;DHT22;28550;51.228;4.528;2023-04-23T01:12:20;9.30;99.90
42905;DHT22;28550;51.228;4.528;2023-04-23T01:14:46;9.30;99.90
42905;DHT22;28550;51.228;4.528;2023-04-23T01:17:12;9.20;99.90
42905;DHT22;28550;51.228;4.528;2023-04-23T01:19:41;9.10;99.90
42905;DHT22;28550;51.228;4.528;2023-04-23T01:22:12;9.00;99.90
42905;DHT22;28550;51.228;4.528;2023-04-23T01:24:40;9.10;99.90
42905;DHT22;28550;51.228;4.528;2023-04-23T01:27:08;9.10;99.90
42905;DHT22;28550;51.228;4.528;2023-04-23T01:29:34;9.10;99.90
42905;DHT22;28550;51.228;4.528;2023-04-23T01:32:02;9.00;99.90
42905;DHT22;28550;51.228;4.528;2023-04-23T01:34:29;8.90;99.90
42905;DHT22;28550;51.228;4.528;2023-04-23T01:36:57;8.90;99.90
42905;DHT22;28550;51.228;4.528;2023-04-23T01:39:23;8.80;99.90
42905;DHT22;28550;51.228;4.528;2023-04-23T01:41:49;8.90;99.90
42905;DHT22;28550;51.228;4.528;2023-04-23T01:44:15;8.80;99.90
42905;DHT22;28550;51.228;4.528;2023-04-23T01:46:41;8.90;99.90
42905;DHT22;28550;51.228;4.528;2023-04-23T01:49:07;8.90;99.90
42905;DHT22;28550;51.228;4.528;2023-04-23T01:51:34;9.10;99.90
42905;DHT22;28550;51.228;4.528;2023-04-23T01:54:00;9.10;99.90
42905;DHT22;28550;51.228;4.528;2023-04-23T01:56:27;9.10;99.90
42905;DHT22;28550;51.228;4.528;2023-04-23T01:58:53;9.10;99.90
42905;DHT22;28550;51.228;4.528;2023-04-23T02:01:19;9.20;99.90
42905;DHT22;28550;51.228;4.528;2023-04-23T02:03:45;9.10;99.90
42905;DHT22;28550;51.228;4.528;2023-04-23T02:06:11;9.20;99.90
42905;DHT22;28550;51.228;4.528;2023-04-23T02:08:38;9.30;99.90
42905;DHT22;28550;51.228;4.528;2023-04-23T02:11:07;9.30;99.90
42905;DHT22;28550;51.228;4.528;2023-04-23T02:13:32;9.30;99.90
42905;DHT22;28550;51.228;4.528;2023-04-23T02:15:58;9.30;99.90
42905;DHT22;28550;51.228;4.528;2023-04-23T02:18:24;9.40;99.90
42905;DHT22;28550;51.228;4.528;2023-04-23T02:20:50;9.50;99.90
42905;DHT22;28550;51.228;4.528;2023-04-23T02:23:16;9.50;99.90
42905;DHT22;28550;51.228;4.528;2023-04-23T02:25:42;9.40;99.90
42905;DHT22;28550;51.228;4.528;2023-04-23T02:28:09;9.50;99.90
42905;DHT22;28550;51.228;4.528;2023-04-23T02:30:38;9.40;99.90
42905;DHT22;28550;51.228;4.528;2023-04-23T02:33:11;9.40;99.90
42905;DHT22;28550;51.228;4.528;2023-04-23T02:35:36;9.40;99.90
42905;DHT22;28550;51.228;4.528;2023-04-23T02:38:02;9.40;99.90
42905;DHT22;28550;51.228;4.528;2023-04-23T02:40:28;9.50;99.90
42905;DHT22;28550;51.228;4.528;2023-04-23T02:42:54;9.60;99.90
42905;DHT22;28550;51.228;4.528;2023-04-23T02:45:20;9.60;99.90
42905;DHT22;28550;51.228;4.528;2023-04-23T02:47:45;9.50;99.90
42905;DHT22;28550;51.228;4.528;2023-04-23T02:50:11;9.50;99.90
42905;DHT22;28550;51.228;4.528;2023-04-23T02:52:37;9.50;99.90
42905;DHT22;28550;51.228;4.528;2023-04-23T02:55:03;9.50;99.90
42905;DHT22;28550;51.228;4.528;2023-04-23T02:57:29;9.50;99.90
42905;DHT22;28550;51.228;4.528;2023-04-23T02:59:55;9.40;99.90
42905;DHT22;28550;51.228;4.528;2023-04-23T03:02:21;9.40;99.90
42905;DHT22;28550;51.228;4.528;2023-04-23T03:04:49;9.30;99.90
42905;DHT22;28550;51.228;4.528;2023-04-23T03:07:16;9.20;99.90
42905;DHT22;28550;51.228;4.528;2023-04-23T03:09:42;9.20;99.90
42905;DHT22;28550;51.228;4.528;2023-04-23T03:12:08;9.10;99.90
42905;DHT22;28550;51.228;4.528;2023-04-23T03:14:34;9.10;99.90
42905;DHT22;28550;51.228;4.528;2023-04-23T03:17:03;9.10;99.90
42905;DHT22;28550;51.228;4.528;2023-04-23T03:23:11;9.10;99.90
42905;DHT22;28550;51.228;4.528;2023-04-23T03:25:38;9.10;99.90
42905;DHT22;28550;51.228;4.528;2023-04-23T03:28:10;9.00;99.90
42905;DHT22;28550;51.228;4.528;2023-04-23T03:30:35;8.90;99.90
42905;DHT22;28550;51.228;4.528;2023-04-23T03:33:02;8.90;99.90
42905;DHT22;28550;51.228;4.528;2023-04-23T03:38:54;8.80;99.90
42905;DHT22;28550;51.228;4.528;2023-04-23T03:41:19;8.70;99.90
42905;DHT22;28550;51.228;4.528;2023-04-23T03:43:45;8.60;99.90
42905;DHT22;28550;51.228;4.528;2023-04-23T03:46:11;8.60;99.90
42905;DHT22;28550;51.228;4.528;2023-04-23T03:48:36;8.60;99.90
42905;DHT22;28550;51.228;4.528;2023-04-23T03:51:03;8.60;99.90
42905;DHT22;28550;51.228;4.528;2023-04-23T03:53:29;8.60;99.90
42905;DHT22;28550;51.228;4.528;2023-04-23T03:55:55;8.50;99.90
42905;DHT22;28550;51.228;4.528;2023-04-23T03:58:21;8.40;99.90
42905;DHT22;28550;51.228;4.528;2023-04-23T04:00:47;8.40;99.90
42905;DHT22;28550;51.228;4.528;2023-04-23T04:03:16;8.40;99.90
42905;DHT22;28550;51.228;4.528;2023-04-23T04:05:42;8.30;99.90
42905;DHT22;28550;51.228;4.528;2023-04-23T04:08:09;8.30;99.90
42905;DHT22;28550;51.228;4.528;2023-04-23T04:10:36;8.20;99.90
42905;DHT22;28550;51.228;4.528;2023-04-23T04:13:02;8.20;99.90
42905;DHT22;28550;51.228;4.528;2023-04-23T04:15:28;8.10;99.90
42905;DHT22;28550;51.228;4.528;2023-04-23T04:17:54;8.10;99.90
42905;DHT22;28550;51.228;4.528;2023-04-23T04:20:19;8.20;99.90
42905;DHT22;28550;51.228;4.528;2023-04-23T04:22:45;8.30;99.90
42905;DHT22;28550;51.228;4.528;2023-04-23T04:25:12;8.30;99.90
42905;DHT22;28550;51.228;4.528;2023-04-23T04:27:37;8.20;99.90
42905;DHT22;28550;51.228;4.528;2023-04-23T04:30:04;8.20;99.90
42905;DHT22;28550;51.228;4.528;2023-04-23T04:32:30;8.10;99.90
42905;DHT22;28550;51.228;4.528;2023-04-23T04:34:56;8.00;99.90
42905;DHT22;28550;51.228;4.528;2023-04-23T04:37:22;8.00;99.90
42905;DHT22;28550;51.228;4.528;2023-04-23T04:39:49;7.90;99.90
42905;DHT22;28550;51.228;4.528;2023-04-23T04:42:15;7.90;99.90
42905;DHT22;28550;51.228;4.528;2023-04-23T04:44:42;7.90;99.90
42905;DHT22;28550;51.228;4.528;2023-04-23T04:47:08;7.90;99.90
42905;DHT22;28550;51.228;4.528;2023-04-23T04:49:33;7.90;99.90
42905;DHT22;28550;51.228;4.528;2023-04-23T04:52:00;7.90;99.90
42905;DHT22;28550;51.228;4.528;2023-04-23T04:54:26;7.80;99.90
42905;DHT22;28550;51.228;4.528;2023-04-23T04:56:52;7.90;99.90
42905;DHT22;28550;51.228;4.528;2023-04-23T04:59:17;7.90;99.90
42905;DHT22;28550;51.228;4.528;2023-04-23T05:01:43;7.90;99.90
42905;DHT22;28550;51.228;4.528;2023-04-23T05:04:09;8.00;99.90
42905;DHT22;28550;51.228;4.528;2023-04-23T05:06:36;8.00;99.90
42905;DHT22;28550;51.228;4.528;2023-04-23T05:09:02;8.10;99.90
42905;DHT22;28550;51.228;4.528;2023-04-23T05:11:28;8.20;99.90
42905;DHT22;28550;51.228;4.528;2023-04-23T05:13:55;8.30;99.90
42905;DHT22;28550;51.228;4.528;2023-04-23T05:16:21;8.30;99.90
42905;DHT22;28550;51.228;4.528;2023-04-23T05:18:48;8.30;99.90
42905;DHT22;28550;51.228;4.528;2023-04-23T05:21:17;8.30;99.90
42905;DHT22;28550;51.228;4.528;2023-04-23T05:23:43;8.40;99.90
42905;DHT22;28550;51.228;4.528;2023-04-23T05:26:10;8.40;99.90
42905;DHT22;28550;51.228;4.528;2023-04-23T05:28:36;8.50;99.90
42905;DHT22;28550;51.228;4.528;2023-04-23T05:31:03;8.50;99.90
42905;DHT22;28550;51.228;4.528;2023-04-23T05:33:29;8.60;99.90
42905;DHT22;28550;51.228;4.528;2023-04-23T05:35:55;8.70;99.90
42905;DHT22;28550;51.228;4.528;2023-04-23T05:38:21;8.70;99.90
42905;DHT22;28550;51.228;4.528;2023-04-23T05:40:47;8.70;99.90
42905;DHT22;28550;51.228;4.528;2023-04-23T05:43:13;8.80;99.90
42905;DHT22;28550;51.228;4.528;2023-04-23T05:45:39;8.90;99.90
42905;DHT22;28550;51.228;4.528;2023-04-23T05:48:04;8.90;99.90
42905;DHT22;28550;51.228;4.528;2023-04-23T05:50:30;9.00;99.90
42905;DHT22;28550;51.228;4.528;2023-04-23T05:52:56;9.10;99.90
42905;DHT22;28550;51.228;4.528;2023-04-23T05:55:21;9.10;99.90
42905;DHT22;28550;51.228;4.528;2023-04-23T05:57:48;9.20;99.90
42905;DHT22;28550;51.228;4.528;2023-04-23T06:00:15;9.40;99.90
42905;DHT22;28550;51.228;4.528;2023-04-23T06:02:42;9.60;99.90
42905;DHT22;28550;51.228;4.528;2023-04-23T06:05:08;9.60;99.90
42905;DHT22;28550;51.228;4.528;2023-04-23T06:07:34;9.70;99.90
42905;DHT22;28550;51.228;4.528;2023-04-23T06:10:02;9.90;99.90
42905;DHT22;28550;51.228;4.528;2023-04-23T06:12:31;10.10;99.90
42905;DHT22;28550;51.228;4.528;2023-04-23T06:14:58;10.30;99.90
42905;DHT22;28550;51.228;4.528;2023-04-23T06:17:24;10.50;99.90
42905;DHT22;28550;51.228;4.528;2023-04-23T06:19:50;10.60;99.90
42905;DHT22;28550;51.228;4.528;2023-04-23T06:22:15;10.60;99.90
42905;DHT22;28550;51.228;4.528;2023-04-23T06:24:41;10.80;99.90
42905;DHT22;28550;51.228;4.528;2023-04-23T06:27:09;11.20;99.90
42905;DHT22;28550;51.228;4.528;2023-04-23T06:29:37;11.50;99.90
42905;DHT22;28550;51.228;4.528;2023-04-23T06:32:02;11.70;99.90
42905;DHT22;28550;51.228;4.528;2023-04-23T06:34:29;12.10;99.90
42905;DHT22;28550;51.228;4.528;2023-04-23T06:36:55;12.20;99.90
42905;DHT22;28550;51.228;4.528;2023-04-23T06:39:20;12.20;99.90
42905;DHT22;28550;51.228;4.528;2023-04-23T06:41:46;12.80;99.90
42905;DHT22;28550;51.228;4.528;2023-04-23T06:44:12;13.00;86.40
42905;DHT22;28550;51.228;4.528;2023-04-23T06:46:38;13.40;63.70
42905;DHT22;28550;51.228;4.528;2023-04-23T06:49:03;13.40;85.00
42905;DHT22;28550;51.228;4.528;2023-04-23T06:51:29;13.80;71.90
42905;DHT22;28550;51.228;4.528;2023-04-23T06:54:00;14.20;39.10
42905;DHT22;28550;51.228;4.528;2023-04-23T06:56:26;14.70;58.80
42905;DHT22;28550;51.228;4.528;2023-04-23T06:58:52;15.50;1.00
42905;DHT22;28550;51.228;4.528;2023-04-23T07:01:18;16.20;1.00
42905;DHT22;28550;51.228;4.528;2023-04-23T07:03:45;16.50;99.90
42905;DHT22;28550;51.228;4.528;2023-04-23T07:06:16;17.00;94.50
42905;DHT22;28550;51.228;4.528;2023-04-23T07:08:43;17.50;36.30
42905;DHT22;28550;51.228;4.528;2023-04-23T07:11:09;17.50;99.90
42905;DHT22;28550;51.228;4.528;2023-04-23T07:13:36;17.60;99.90
42905;DHT22;28550;51.228;4.528;2023-04-23T07:16:04;18.10;99.90
42905;DHT22;28550;51.228;4.528;2023-04-23T07:18:32;18.30;99.90
42905;DHT22;28550;51.228;4.528;2023-04-23T07:20:59;18.20;99.90
42905;DHT22;28550;51.228;4.528;2023-04-23T07:23:26;17.80;1.00
42905;DHT22;28550;51.228;4.528;2023-04-23T07:25:52;18.20;99.90
42905;DHT22;28550;51.228;4.528;2023-04-23T07:28:28;18.80;1.00
42905;DHT22;28550;51.228;4.528;2023-04-23T07:30:53;19.10;99.90
42905;DHT22;28550;51.228;4.528;2023-04-23T07:33:25;19.00;99.90
42905;DHT22;28550;51.228;4.528;2023-04-23T07:35:50;19.30;99.90
42905;DHT22;28550;51.228;4.528;2023-04-23T07:38:17;19.30;99.90
42905;DHT22;28550;51.228;4.528;2023-04-23T07:40:42;19.50;1.00
42905;DHT22;28550;51.228;4.528;2023-04-23T07:43:10;19.70;90.50
42905;DHT22;28550;51.228;4.528;2023-04-23T07:45:37;19.90;99.90
42905;DHT22;28550;51.228;4.528;2023-04-23T07:48:06;20.30;1.00
42905;DHT22;28550;51.228;4.528;2023-04-23T07:50:31;20.60;99.90
42905;DHT22;28550;51.228;4.528;2023-04-23T07:53:02;20.70;1.00
42905;DHT22;28550;51.228;4.528;2023-04-23T07:55:31;20.90;1.00
42905;DHT22;28550;51.228;4.528;2023-04-23T07:57:56;21.30;99.90
42905;DHT22;28550;51.228;4.528;2023-04-23T08:00:28;21.60;1.00
42905;DHT22;28550;51.228;4.528;2023-04-23T08:02:54;22.00;99.90
42905;DHT22;28550;51.228;4.528;2023-04-23T08:05:21;21.80;99.90
42905;DHT22;28550;51.228;4.528;2023-04-23T08:07:48;21.20;99.90
42905;DHT22;28550;51.228;4.528;2023-04-23T08:10:14;21.50;99.90
42905;DHT22;28550;51.228;4.528;2023-04-23T08:12:40;21.50;99.90
42905;DHT22;28550;51.228;4.528;2023-04-23T08:15:06;20.50;99.90
42905;DHT22;28550;51.228;4.528;2023-04-23T08:17:35;20.80;99.90
42905;DHT22;28550;51.228;4.528;2023-04-23T08:20:03;21.20;81.10
42905;DHT22;28550;51.228;4.528;2023-04-23T08:22:31;21.00;99.90
42905;DHT22;28550;51.228;4.528;2023-04-23T08:24:57;21.60;1.00
42905;DHT22;28550;51.228;4.528;2023-04-23T08:27:23;21.00;1.00
42905;DHT22;28550;51.228;4.528;2023-04-23T08:29:49;20.90;1.00
42905;DHT22;28550;51.228;4.528;2023-04-23T08:32:18;21.30;1.00
42905;DHT22;28550;51.228;4.528;2023-04-23T08:34:45;20.60;1.00
42905;DHT22;28550;51.228;4.528;2023-04-23T08:37:11;21.00;1.00
42905;DHT22;28550;51.228;4.528;2023-04-23T08:39:38;20.50;1.00
42905;DHT22;28550;51.228;4.528;2023-04-23T08:42:10;20.30;71.60
42905;DHT22;28550;51.228;4.528;2023-04-23T08:44:40;21.00;1.00
42905;DHT22;28550;51.228;4.528;2023-04-23T08:47:11;21.60;1.00
42905;DHT22;28550;51.228;4.528;2023-04-23T08:49:41;20.70;1.00
42905;DHT22;28550;51.228;4.528;2023-04-23T08:52:15;21.60;1.00
42905;DHT22;28550;51.228;4.528;2023-04-23T08:54:49;22.50;99.90
42905;DHT22;28550;51.228;4.528;2023-04-23T08:57:17;22.30;99.90
42905;DHT22;28550;51.228;4.528;2023-04-23T08:59:44;21.90;99.90
42905;DHT22;28550;51.228;4.528;2023-04-23T09:02:11;22.00;99.50
42905;DHT22;28550;51.228;4.528;2023-04-23T09:04:37;21.20;73.00
42905;DHT22;28550;51.228;4.528;2023-04-23T09:07:03;20.50;99.90
42905;DHT22;28550;51.228;4.528;2023-04-23T09:09:29;20.70;99.90
42905;DHT22;28550;51.228;4.528;2023-04-23T09:11:56;21.40;99.90
42905;DHT22;28550;51.228;4.528;2023-04-23T09:14:25;21.10;99.90
42905;DHT22;28550;51.228;4.528;2023-04-23T09:16:51;21.10;51.50
42905;DHT22;28550;51.228;4.528;2023-04-23T09:19:17;21.20;99.90
42905;DHT22;28550;51.228;4.528;2023-04-23T09:21:46;21.40;93.60
42905;DHT22;28550;51.228;4.528;2023-04-23T09:24:22;21.90;99.90
42905;DHT22;28550;51.228;4.528;2023-04-23T09:26:52;21.00;20.60
42905;DHT22;28550;51.228;4.528;2023-04-23T09:29:37;20.40;57.60
42905;DHT22;28550;51.228;4.528;2023-04-23T09:32:07;20.40;72.40
42905;DHT22;28550;51.228;4.528;2023-04-23T09:34:38;20.80;99.90
42905;DHT22;28550;51.228;4.528;2023-04-23T09:37:06;21.10;28.20
42905;DHT22;28550;51.228;4.528;2023-04-23T09:39:51;21.00;12.80
42905;DHT22;28550;51.228;4.528;2023-04-23T09:42:22;20.80;1.00
42905;DHT22;28550;51.228;4.528;2023-04-23T09:45:10;20.10;23.50
42905;DHT22;28550;51.228;4.528;2023-04-23T09:47:53;20.50;60.40
42905;DHT22;28550;51.228;4.528;2023-04-23T09:50:40;21.00;1.00
42905;DHT22;28550;51.228;4.528;2023-04-23T09:53:09;20.70;1.00
42905;DHT22;28550;51.228;4.528;2023-04-23T09:55:43;20.80;1.00
42905;DHT22;28550;51.228;4.528;2023-04-23T09:58:14;20.70;1.00
42905;DHT22;28550;51.228;4.528;2023-04-23T10:01:08;20.10;1.00
42905;DHT22;28550;51.228;4.528;2023-04-23T10:03:35;19.30;1.00
42905;DHT22;28550;51.228;4.528;2023-04-23T10:06:00;18.70;99.90
42905;DHT22;28550;51.228;4.528;2023-04-23T10:08:27;18.50;99.90
42905;DHT22;28550;51.228;4.528;2023-04-23T10:11:31;18.40;99.90
42905;DHT22;28550;51.228;4.528;2023-04-23T10:13:59;18.50;99.90
42905;DHT22;28550;51.228;4.528;2023-04-23T10:16:25;18.90;99.90
42905;DHT22;28550;51.228;4.528;2023-04-23T10:19:01;18.90;99.90
42905;DHT22;28550;51.228;4.528;2023-04-23T10:21:29;18.80;99.90
42905;DHT22;28550;51.228;4.528;2023-04-23T10:24:01;18.80;99.90
42905;DHT22;28550;51.228;4.528;2023-04-23T10:26:28;19.00;99.90
42905;DHT22;28550;51.228;4.528;2023-04-23T10:29:00;18.70;99.90
42905;DHT22;28550;51.228;4.528;2023-04-23T10:31:31;19.00;99.90
42905;DHT22;28550;51.228;4.528;2023-04-23T10:33:57;19.20;62.50
42905;DHT22;28550;51.228;4.528;2023-04-23T10:36:24;19.00;43.60
42905;DHT22;28550;51.228;4.528;2023-04-23T10:38:50;19.00;1.00
42905;DHT22;28550;51.228;4.528;2023-04-23T10:41:35;19.00;3.80
42905;DHT22;28550;51.228;4.528;2023-04-23T10:44:04;18.80;97.90
42905;DHT22;28550;51.228;4.528;2023-04-23T10:46:38;19.10;90.90
42905;DHT22;28550;51.228;4.528;2023-04-23T10:49:11;19.00;1.00
42905;DHT22;28550;51.228;4.528;2023-04-23T10:51:41;19.20;59.00
42905;DHT22;28550;51.228;4.528;2023-04-23T10:54:14;19.00;23.10
42905;DHT22;28550;51.228;4.528;2023-04-23T10:56:40;19.10;1.00
42905;DHT22;28550;51.228;4.528;2023-04-23T10:59:19;19.00;50.20
42905;DHT22;28550;51.228;4.528;2023-04-23T11:01:47;19.70;1.00
42905;DHT22;28550;51.228;4.528;2023-04-23T11:04:25;20.60;1.00
42905;DHT22;28550;51.228;4.528;2023-04-23T11:07:08;21.20;1.00
42905;DHT22;28550;51.228;4.528;2023-04-23T11:12:06;21.80;1.00
42905;DHT22;28550;51.228;4.528;2023-04-23T11:14:45;21.50;99.90
42905;DHT22;28550;51.228;4.528;2023-04-23T11:20:22;20.70;99.90
42905;DHT22;28550;51.228;4.528;2023-04-23T11:22:52;20.20;99.90
42905;DHT22;28550;51.228;4.528;2023-04-23T11:25:22;20.10;99.90
42905;DHT22;28550;51.228;4.528;2023-04-23T11:27:58;19.70;99.90
42905;DHT22;28550;51.228;4.528;2023-04-23T11:30:25;19.30;99.90
42905;DHT22;28550;51.228;4.528;2023-04-23T11:32:54;19.20;1.00
42905;DHT22;28550;51.228;4.528;2023-04-23T11:35:22;18.90;1.00
42905;DHT22;28550;51.228;4.528;2023-04-23T11:37:49;18.70;1.00
42905;DHT22;28550;51.228;4.528;2023-04-23T11:40:17;18.50;1.00
42905;DHT22;28550;51.228;4.528;2023-04-23T11:42:51;18.50;1.00
42905;DHT22;28550;51.228;4.528;2023-04-23T11:45:27;18.40;17.60
42905;DHT22;28550;51.228;4.528;2023-04-23T11:47:55;17.90;99.90
42905;DHT22;28550;51.228;4.528;2023-04-23T11:50:29;17.50;1.00
42905;DHT22;28550;51.228;4.528;2023-04-23T11:53:08;17.20;1.00
42905;DHT22;28550;51.228;4.528;2023-04-23T11:55:47;17.20;1.00
42905;DHT22;28550;51.228;4.528;2023-04-23T11:58:33;17.20;1.00
42905;DHT22;28550;51.228;4.528;2023-04-23T12:01:00;17.20;99.90
42905;DHT22;28550;51.228;4.528;2023-04-23T12:03:27;17.40;1.00
42905;DHT22;28550;51.228;4.528;2023-04-23T12:08:22;17.90;99.90
42905;DHT22;28550;51.228;4.528;2023-04-23T12:11:02;18.10;53.30
42905;DHT22;28550;51.228;4.528;2023-04-23T12:13:46;18.50;1.00
42905;DHT22;28550;51.228;4.528;2023-04-23T12:19:11;19.30;1.00
42905;DHT22;28550;51.228;4.528;2023-04-23T12:39:42;17.50;15.30
42905;DHT22;28550;51.228;4.528;2023-04-23T12:42:08;17.10;1.00
42905;DHT22;28550;51.228;4.528;2023-04-23T12:45:03;17.00;99.90
42905;DHT22;28550;51.228;4.528;2023-04-23T12:47:29;16.50;99.90
42905;DHT22;28550;51.228;4.528;2023-04-23T12:49:57;15.80;1.00
42905;DHT22;28550;51.228;4.528;2023-04-23T12:52:25;15.10;1.00
42905;DHT22;28550;51.228;4.528;2023-04-23T12:54:51;14.40;1.00
42905;DHT22;28550;51.228;4.528;2023-04-23T12:57:20;14.10;1.00
42905;DHT22;28550;51.228;4.528;2023-04-23T12:59:47;13.90;6.50
42905;DHT22;28550;51.228;4.528;2023-04-23T13:02:20;13.80;20.60
42905;DHT22;28550;51.228;4.528;2023-04-23T13:04:46;13.70;35.70
42905;DHT22;28550;51.228;4.528;2023-04-23T13:07:11;13.80;45.80
42905;DHT22;28550;51.228;4.528;2023-04-23T13:09:37;13.70;44.10
42905;DHT22;28550;51.228;4.528;2023-04-23T13:14:28;13.30;86.60
42905;DHT22;28550;51.228;4.528;2023-04-23T13:16:56;13.30;86.80
42905;DHT22;28550;51.228;4.528;2023-04-23T13:19:23;13.20;87.40
42905;DHT22;28550;51.228;4.528;2023-04-23T13:24:48;13.40;98.70
42905;DHT22;28550;51.228;4.528;2023-04-23T13:27:14;13.40;99.90
42905;DHT22;28550;51.228;4.528;2023-04-23T13:29:42;13.30;99.90
42905;DHT22;28550;51.228;4.528;2023-04-23T13:32:08;13.40;99.90
42905;DHT22;28550;51.228;4.528;2023-04-23T13:34:36;13.50;99.90
42905;DHT22;28550;51.228;4.528;2023-04-23T13:39:38;13.40;99.90
42905;DHT22;28550;51.228;4.528;2023-04-23T13:42:04;13.40;99.90
42905;DHT22;28550;51.228;4.528;2023-04-23T13:44:30;13.40;99.90
42905;DHT22;28550;51.228;4.528;2023-04-23T13:46:56;13.30;99.90
42905;DHT22;28550;51.228;4.528;2023-04-23T13:49:26;13.30;97.50
42905;DHT22;28550;51.228;4.528;2023-04-23T13:51:53;13.20;96.30
42905;DHT22;28550;51.228;4.528;2023-04-23T13:54:23;13.30;99.90
42905;DHT22;28550;51.228;4.528;2023-04-23T13:56:56;13.50;99.90
42905;DHT22;28550;51.228;4.528;2023-04-23T13:59:23;13.40;99.90
42905;DHT22;28550;51.228;4.528;2023-04-23T14:01:49;13.40;99.90
42905;DHT22;28550;51.228;4.528;2023-04-23T14:04:17;13.20;99.90
42905;DHT22;28550;51.228;4.528;2023-04-23T14:06:46;13.30;99.90
42905;DHT22;28550;51.228;4.528;2023-04-23T14:09:11;13.20;99.90
42905;DHT22;28550;51.228;4.528;2023-04-23T14:11:37;13.30;99.90
42905;DHT22;28550;51.228;4.528;2023-04-23T14:14:06;13.30;99.90
42905;DHT22;28550;51.228;4.528;2023-04-23T14:16:34;13.00;99.90
42905;DHT22;28550;51.228;4.528;2023-04-23T14:19:00;12.90;99.90
42905;DHT22;28550;51.228;4.528;2023-04-23T14:21:26;13.10;99.90
42905;DHT22;28550;51.228;4.528;2023-04-23T14:24:08;13.20;99.90
42905;DHT22;28550;51.228;4.528;2023-04-23T14:26:36;13.10;99.90
42905;DHT22;28550;51.228;4.528;2023-04-23T14:31:50;13.00;99.90
42905;DHT22;28550;51.228;4.528;2023-04-23T14:34:16;12.80;99.90
42905;DHT22;28550;51.228;4.528;2023-04-23T14:36:42;12.60;99.90
42905;DHT22;28550;51.228;4.528;2023-04-23T14:39:10;12.50;99.90
42905;DHT22;28550;51.228;4.528;2023-04-23T14:41:37;12.30;99.90
42905;DHT22;28550;51.228;4.528;2023-04-23T14:44:04;12.40;99.90
42905;DHT22;28550;51.228;4.528;2023-04-23T14:46:34;12.50;99.90
42905;DHT22;28550;51.228;4.528;2023-04-23T14:48:59;12.40;99.90
42905;DHT22;28550;51.228;4.528;2023-04-23T14:51:25;12.40;99.90
42905;DHT22;28550;51.228;4.528;2023-04-23T14:53:52;12.40;99.90
42905;DHT22;28550;51.228;4.528;2023-04-23T14:56:17;12.50;99.90
42905;DHT22;28550;51.228;4.528;2023-04-23T14:58:43;12.40;99.90
42905;DHT22;28550;51.228;4.528;2023-04-23T15:01:15;12.50;99.90
42905;DHT22;28550;51.228;4.528;2023-04-23T15:03:43;12.50;99.90
42905;DHT22;28550;51.228;4.528;2023-04-23T15:06:11;12.50;99.90
42905;DHT22;28550;51.228;4.528;2023-04-23T15:08:36;12.60;99.90
42905;DHT22;28550;51.228;4.528;2023-04-23T15:11:02;12.60;99.90
42905;DHT22;28550;51.228;4.528;2023-04-23T15:13:54;12.70;99.90
42905;DHT22;28550;51.228;4.528;2023-04-23T15:16:32;12.80;99.90
42905;DHT22;28550;51.228;4.528;2023-04-23T15:19:00;13.00;99.90
42905;DHT22;28550;51.228;4.528;2023-04-23T15:21:26;13.00;99.90
42905;DHT22;28550;51.228;4.528;2023-04-23T15:23:54;13.10;99.90
42905;DHT22;28550;51.228;4.528;2023-04-23T15:26:20;13.10;99.90
42905;DHT22;28550;51.228;4.528;2023-04-23T15:28:48;13.20;99.90
42905;DHT22;28550;51.228;4.528;2023-04-23T15:31:14;13.30;99.90
42905;DHT22;28550;51.228;4.528;2023-04-23T15:33:40;13.20;99.90
42905;DHT22;28550;51.228;4.528;2023-04-23T15:36:09;13.30;99.90
42905;DHT22;28550;51.228;4.528;2023-04-23T15:38:55;13.50;99.90
42905;DHT22;28550;51.228;4.528;2023-04-23T15:41:23;13.50;99.90
42905;DHT22;28550;51.228;4.528;2023-04-23T15:46:21;13.40;99.90
42905;DHT22;28550;51.228;4.528;2023-04-23T15:48:50;13.50;99.90
42905;DHT22;28550;51.228;4.528;2023-04-23T15:51:16;13.60;99.90
42905;DHT22;28550;51.228;4.528;2023-04-23T15:53:42;13.90;99.90
42905;DHT22;28550;51.228;4.528;2023-04-23T15:56:11;14.10;98.80
42905;DHT22;28550;51.228;4.528;2023-04-23T15:58:37;14.20;96.90
42905;DHT22;28550;51.228;4.528;2023-04-23T16:01:02;14.30;97.70
42905;DHT22;28550;51.228;4.528;2023-04-23T16:06:02;14.30;93.40
42905;DHT22;28550;51.228;4.528;2023-04-23T16:08:41;14.20;97.10
42905;DHT22;28550;51.228;4.528;2023-04-23T16:11:07;13.90;96.50
42905;DHT22;28550;51.228;4.528;2023-04-23T16:13:34;13.80;99.00
42905;DHT22;28550;51.228;4.528;2023-04-23T16:16:01;13.70;99.90
42905;DHT22;28550;51.228;4.528;2023-04-23T16:18:31;13.60;99.90
42905;DHT22;28550;51.228;4.528;2023-04-23T16:21:04;13.50;99.90
42905;DHT22;28550;51.228;4.528;2023-04-23T16:23:30;13.40;99.90
42905;DHT22;28550;51.228;4.528;2023-04-23T16:25:56;13.20;99.90
42905;DHT22;28550;51.228;4.528;2023-04-23T16:28:28;13.20;99.90
42905;DHT22;28550;51.228;4.528;2023-04-23T16:30:58;13.20;99.90
42905;DHT22;28550;51.228;4.528;2023-04-23T16:33:33;13.40;99.90
42905;DHT22;28550;51.228;4.528;2023-04-23T16:36:02;13.50;99.90
42905;DHT22;28550;51.228;4.528;2023-04-23T16:38:28;13.60;99.90